Погода Авсимовичина неделю

Могилёвская область, Белоруссия

24 - 30 мая
  • 24мая
    Сегодня
    +12°
    +24°
    Небольшая облачность
    ВремяПогодаТемператураВлажностьДавлениеВетер, м/сВероятность осадков
    00:00Ясно и безоблачно+17°C57 %755 мм5.2 м/с2 %
    03:00Ясно и безоблачно+15°C54 %756 мм5.0 м/с2 %
    06:00Ясно и безоблачно+13°C57 %757 мм4.7 м/с2 %
    09:00Ясно и безоблачно+17°C53 %758 мм4.8 м/с2 %
    12:00Практически безоблачно+21°C50 %758 мм4.9 м/с2 %
    15:00Небольшая облачность+24°C45 %758 мм5.4 м/с2 %
    18:00Небольшая облачность+23°C43 %757 мм5.1 м/с2 %
    21:00Облачно с прояснениями+19°C57 %757 мм4.0 м/с2 %
  • 25мая
    Суббота
    +9°
    +25°
    Ясно и безоблачно
    ВремяПогодаТемператураВлажностьДавлениеВетер, м/сВероятность осадков
    00:00Небольшая облачность+15°C58 %757 мм4.3 м/с2 %
    03:00Ясно и безоблачно+14°C62 %758 мм3.8 м/с2 %
    06:00Ясно и безоблачно+13°C66 %758 мм3.4 м/с2 %
    09:00Ясно и безоблачно+18°C54 %758 мм4.0 м/с2 %
    12:00Ясно и безоблачно+23°C39 %758 мм4.6 м/с2 %
    15:00Ясно и безоблачно+25°C33 %757 мм4.5 м/с2 %
    18:00Ясно и безоблачно+24°C33 %756 мм3.9 м/с2 %
    21:00Ясно и безоблачно+17°C61 %756 мм2.4 м/с2 %
  • 26мая
    Воскресенье
    +11°
    +25°
    Ясно и безоблачно
    ВремяПогодаТемператураВлажностьДавлениеВетер, м/сВероятность осадков
    00:00Практически безоблачно+13°C72 %756 мм2.1 м/с2 %
    03:00Облачно с прояснениями+10°C79 %756 мм2.0 м/с2 %
    06:00Облачно с прояснениями+11°C79 %756 мм2.0 м/с2 %
    09:00Облачно с прояснениями+18°C64 %756 мм1.3 м/с2 %
    12:00Облачно с прояснениями+22°C36 %757 мм2.6 м/с2 %
    15:00Ясно и безоблачно+24°C35 %756 мм2.6 м/с2 %
    18:00Ясно и безоблачно+24°C38 %755 мм3.7 м/с2 %
    21:00Ясно и безоблачно+19°C53 %755 мм1.9 м/с2 %
  • 27мая
    Понедельник
    +13°
    +26°
    Ясно и безоблачно
    ВремяПогодаТемператураВлажностьДавлениеВетер, м/сВероятность осадков
    00:00Небольшая облачность+14°C69 %755 мм1.9 м/с2 %
    03:00Ясно и безоблачно+13°C84 %756 мм2.9 м/с2 %
    06:00Ясно и безоблачно+13°C78 %756 мм1.7 м/с2 %
    09:00Ясно и безоблачно+21°C52 %756 мм1.8 м/с3 %
    12:00Ясно и безоблачно+25°C39 %757 мм3.0 м/с7 %
    15:00Ясно и безоблачно+26°C40 %756 мм3.5 м/с18 %
    18:00Ясно и безоблачно+26°C42 %755 мм3.1 м/с34 %
    21:00Ясно и безоблачно+20°C61 %755 мм2.4 м/с6 %
  • 28мая
    Вторник
    +14°
    +27°
    Практически безоблачно
    ВремяПогодаТемператураВлажностьДавлениеВетер, м/сВероятность осадков
    00:00Ясно и безоблачно+17°C72 %755 мм3.2 м/с2 %
    03:00Ясно и безоблачно+15°C84 %755 мм2.5 м/с2 %
    06:00Ясно и безоблачно+14°C79 %756 мм3.4 м/с2 %
    09:00Ясно и безоблачно+21°C61 %756 мм3.7 м/с2 %
    12:00Ясно и безоблачно+24°C48 %756 мм4.4 м/с2 %
    15:00Практически безоблачно+26°C43 %755 мм3.8 м/с4 %
    18:00Ясно и безоблачно+25°C42 %754 мм3.7 м/с7 %
    21:00Ясно и безоблачно+21°C56 %754 мм2.9 м/с2 %
Мы используем cookies
Соглашаюсь